This is the latest recevied weather packets stored in our database for station/object KC9NBZ. If no packets are shown the sender has not sent any weather packets the latest 10 day(s).
| Time | Temp. | Humidity | Pressure | Rain* | Wind** | Luminosity | Snow |
|---|---|---|---|---|---|---|---|
| 1777827920 | 16.11° C | 53% | 1007 hPa | 0 mm | - | 826 W/m² | - |
| 1777826721 | 15.56° C | 55% | 1007.4 hPa | 0 mm | - | 808 W/m² | - |
| 1777826122 | 15° C | 55% | 1007.5 hPa | 0 mm | - | 798 W/m² | - |
| 1777825521 | 14.44° C | 56% | 1007.7 hPa | 0 mm | - | 786 W/m² | - |
| 1777823119 | 13.89° C | 62% | 1008.4 hPa | 0 mm | - | 722 W/m² | - |
| 1777822523 | 13.33° C | 62% | 1008.5 hPa | 0 mm | - | 682 W/m² | - |
| 1777815921 | 11.11° C | 67% | 1009.6 hPa | 0 mm | - | 167 W/m² | - |
| 1777813539 | 10.56° C | 66% | 1010.1 hPa | 0 mm | - | 41 W/m² | - |
| 1777811719 | 10.56° C | 64% | 1010.3 hPa | 0 mm | - | 112 W/m² | - |
| 1777808121 | 9.44° C | 57% | 1010.2 hPa | 0 mm | - | 18 W/m² | - |
| 1777806321 | 9.44° C | 55% | 1010.1 hPa | 0 mm | - | 8 W/m² | - |
| 1777802122 | 9.44° C | 55% | 1010.6 hPa | 0 mm | - | 0 W/m² | - |
| 1777801522 | 9.44° C | 54% | 1010.7 hPa | 0 mm | - | 0 W/m² | - |
| 1777796723 | 8.89° C | 54% | 1011.3 hPa | 0 mm | - | 0 W/m² | - |
| 1777793721 | 8.89° C | 54% | 1011.5 hPa | 0 mm | - | 0 W/m² | - |
| 1777793119 | 8.89° C | 53% | 1011.6 hPa | 0 mm | - | 0 W/m² | - |
| 1777791920 | 8.89° C | 52% | 1011.7 hPa | 0 mm | - | 0 W/m² | - |
| 1777788920 | 9.44° C | 51% | 1012 hPa | 0 mm | - | 0 W/m² | - |
| 1777786521 | 9.44° C | 49% | 1012.3 hPa | 0 mm | - | 0 W/m² | - |
| 1777784725 | 10° C | 48% | 1012.6 hPa | 0 mm | - | 0 W/m² | - |
| 1777778722 | 9.44° C | 49% | 1013.3 hPa | 0 mm | - | 0 W/m² | - |
| 1777778121 | 9.44° C | 49% | 1013.4 hPa | 0 mm | - | 0 W/m² | - |
| 1777776321 | 5.56° C | 68% | 1013.4 hPa | 0 mm | - | 0 W/m² | - |
| 1777775722 | 6.11° C | 67% | 1013.5 hPa | 0 mm | - | 0 W/m² | - |
| 1777775120 | 6.67° C | 66% | 1013.5 hPa | 0 mm | - | 0 W/m² | - |
* Rain latest hour (hover to see other rain measurements)
** Current wind speed in m/s (hover to see current wind gust speed)